TimeEST,TemperatureF,Dew PointF,Humidity,Sea Level PressureIn,VisibilityMPH,Wind Direction,Wind SpeedMPH,Gust SpeedMPH,PrecipitationIn,Events,Conditions,WindDirDegrees,DateUTC
12:15 AM,57.0,46.9,69,29.92,10.0,West,4.6,-,N/A,,Scattered Clouds,280,2013-11-03 04:15:00
12:35 AM,57.6,46.4,66,29.92,10.0,NW,4.6,-,N/A,,Scattered Clouds,320,2013-11-03 04:35:00
12:55 AM,55.6,45.5,69,29.92,10.0,NNW,4.6,-,N/A,,Scattered Clouds,340,2013-11-03 04:55:00
1:15 AM,55.6,44.4,66,29.92,10.0,NW,4.6,-,N/A,,Clear,320,2013-11-03 05:15:00
1:35 AM,54.7,42.8,64,29.93,10.0,NNW,5.8,-,N/A,,Clear,330,2013-11-03 05:35:00
1:55 AM,55.6,42.4,61,29.94,10.0,NNW,6.9,-,N/A,,Clear,330,2013-11-03 05:55:00
1:15 AM,54.5,42.8,65,29.94,10.0,NNW,8.1,-,N/A,,Clear,340,2013-11-03 06:15:00
1:35 AM,54.5,43.0,65,29.95,10.0,NNW,5.8,-,N/A,,Clear,340,2013-11-03 06:35:00
1:55 AM,53.1,43.2,69,29.96,10.0,NNW,5.8,-,N/A,,Clear,330,2013-11-03 06:55:00
2:15 AM,52.3,43.7,72,29.96,10.0,NNW,5.8,-,N/A,,Clear,330,2013-11-03 07:15:00
2:35 AM,51.3,43.7,75,29.96,10.0,NW,4.6,-,N/A,,Clear,320,2013-11-03 07:35:00
2:55 AM,50.2,43.3,77,29.97,10.0,NW,4.6,-,N/A,,Clear,320,2013-11-03 07:55:00
3:15 AM,49.8,42.8,77,29.98,10.0,NW,4.6,-,N/A,,Clear,310,2013-11-03 08:15:00
3:35 AM,49.3,42.8,78,29.99,10.0,NW,4.6,-,N/A,,Clear,320,2013-11-03 08:35:00
3:55 AM,49.1,42.1,77,29.99,10.0,NW,4.6,-,N/A,,Clear,320,2013-11-03 08:55:00
4:15 AM,48.7,41.5,76,30.00,10.0,NW,5.8,-,N/A,,Clear,320,2013-11-03 09:15:00
4:35 AM,48.4,41.2,76,30.01,10.0,NW,5.8,-,N/A,,Clear,320,2013-11-03 09:35:00
4:55 AM,48.4,40.5,74,30.02,10.0,NW,4.6,-,N/A,,Clear,320,2013-11-03 09:55:00
5:15 AM,48.0,40.1,74,30.03,10.0,NNW,3.5,-,N/A,,Clear,330,2013-11-03 10:15:00
5:35 AM,47.5,39.4,73,30.04,10.0,NNW,4.6,-,N/A,,Clear,330,2013-11-03 10:35:00
5:55 AM,46.4,39.6,77,30.05,10.0,NW,3.5,-,N/A,,Clear,310,2013-11-03 10:55:00
6:56 AM,44.6,39.2,81,30.08,10.0,NW,3.5,-,N/A,,Clear,320,2013-11-03 11:56:00
7:56 AM,50.0,39.2,66,30.12,10.0,NNW,6.9,-,N/A,,Clear,340,2013-11-03 12:56:00
8:56 AM,55.4,39.2,54,30.15,10.0,North,12.7,-,N/A,,Clear,350,2013-11-03 13:56:00
9:56 AM,59.0,39.2,48,30.16,10.0,North,16.1,19.6,N/A,,Clear,360,2013-11-03 14:56:00
10:56 AM,60.8,37.4,42,30.17,10.0,North,15.0,20.7,N/A,,Clear,350,2013-11-03 15:56:00
11:56 AM,62.6,37.4,39,30.16,10.0,North,11.5,19.6,N/A,,Clear,350,2013-11-03 16:56:00
12:56 PM,62.6,37.4,39,30.16,10.0,NNW,12.7,17.3,N/A,,Scattered Clouds,340,2013-11-03 17:56:00
1:56 PM,64.4,37.4,37,30.16,10.0,North,10.4,-,N/A,,Scattered Clouds,360,2013-11-03 18:56:00
2:56 PM,64.4,37.4,37,30.17,10.0,NNW,6.9,-,N/A,,Scattered Clouds,330,2013-11-03 19:56:00
3:56 PM,62.6,37.4,39,30.20,10.0,North,10.4,-,N/A,,Scattered Clouds,10,2013-11-03 20:56:00
4:56 PM,59.0,39.2,48,30.22,10.0,NNE,5.8,-,N/A,,Clear,20,2013-11-03 21:56:00
5:56 PM,51.8,41.0,67,30.24,10.0,North,4.6,-,N/A,,Clear,360,2013-11-03 22:56:00
6:56 PM,50.0,41.0,71,30.27,10.0,North,3.5,-,N/A,,Clear,360,2013-11-03 23:56:00
7:56 PM,44.6,41.0,87,30.30,10.0,North,3.5,-,N/A,,Clear,360,2013-11-04 00:56:00
8:15 PM,46.2,41.0,82,30.31,10.0,North,5.8,-,N/A,,Clear,360,2013-11-04 01:15:00
8:35 PM,48.0,39.9,74,30.32,10.0,North,8.1,-,N/A,,Clear,10,2013-11-04 01:35:00
8:55 PM,50.9,38.7,63,30.33,10.0,NNE,8.1,-,N/A,,Clear,20,2013-11-04 01:55:00
8:56 PM,50.0,39.2,66,30.33,10.0,NNE,9.2,-,N/A,,Clear,20,2013-11-04 01:56:00
9:15 PM,50.0,38.3,64,30.34,10.0,NNE,5.8,-,N/A,,Clear,30,2013-11-04 02:15:00
9:35 PM,48.0,38.3,69,30.35,10.0,NNE,4.6,-,N/A,,Clear,30,2013-11-04 02:35:00
9:55 PM,47.5,37.6,69,30.35,10.0,NNE,5.8,-,N/A,,Clear,30,2013-11-04 02:55:00
10:15 PM,47.5,36.9,67,30.35,10.0,NNE,5.8,-,N/A,,Clear,20,2013-11-04 03:15:00
10:35 PM,46.6,36.7,68,30.35,10.0,NNE,4.6,-,N/A,,Clear,20,2013-11-04 03:35:00
10:55 PM,46.2,36.7,69,30.35,10.0,NNE,5.8,-,N/A,,Clear,20,2013-11-04 03:55:00